Hamiota, Canada
Current Conditions -  °F | °C
As of 7:00 PM on Tuesday 27 Jan 2015 (Local Time) from CYBR Reporting Station
Broken Clouds Broken Clouds  
Wind Chill: 20°   Ceiling: 24000
Heat Index: 28°   Visibility: 15mi
Dew Point: 27°   Wind: 8mph
Humidity: 93%   Direction: 60°ENE
Pressure: 29.84"   Gusts: NA
Location:  50.18°N, 100.6°W
Report Text: CYBR 280100Z 06007KT 15SM BKN240 M02/M03 A2984 RMK CI7 SLP130
Loading
Personal Weather Stations






























Interactive Weather Map New forecast layout! Learn more

10-Day Weather Forecast

Advertisements
Track Severe Weather on mobile